createdAt,value
2022-12-08T00:03:55.299Z,47.07
2022-12-08T00:09:16.506Z,46.89
2022-12-08T00:14:19.862Z,46.94
2022-12-08T00:19:23.410Z,46.94
2022-12-08T00:24:26.877Z,46.86
2022-12-08T00:29:30.292Z,46.73
2022-12-08T00:34:33.980Z,46.82
2022-12-08T00:39:37.401Z,46.86
2022-12-08T00:44:40.797Z,46.68
2022-12-08T00:49:44.192Z,47.17
2022-12-08T00:54:47.552Z,46.85
2022-12-08T00:59:51.018Z,47.12
2022-12-08T01:04:54.382Z,47.01
2022-12-08T01:09:58.552Z,47.15
2022-12-08T01:15:02.659Z,47.16
2022-12-08T01:20:06.905Z,47.16
2022-12-08T01:25:10.539Z,47.17
2022-12-08T01:30:14.058Z,47.20
2022-12-08T01:35:17.406Z,47.36
2022-12-08T01:40:20.789Z,47.27
2022-12-08T01:45:24.258Z,47.34
2022-12-08T01:50:27.685Z,47.25
2022-12-08T01:55:31.065Z,47.25
2022-12-08T02:00:34.471Z,47.36
2022-12-08T02:05:37.864Z,47.18
2022-12-08T02:10:41.370Z,46.97
2022-12-08T02:15:44.817Z,46.98
2022-12-08T02:20:48.232Z,46.93
2022-12-08T02:25:51.655Z,46.82
2022-12-08T02:30:55.184Z,46.80
2022-12-08T02:35:58.634Z,46.73
2022-12-08T02:41:02.070Z,46.78
2022-12-08T02:46:05.460Z,46.93
2022-12-08T02:51:08.991Z,46.90
2022-12-08T02:56:12.378Z,47.03
2022-12-08T03:01:15.794Z,47.03
2022-12-08T03:06:19.290Z,46.86
2022-12-08T03:11:22.735Z,47.00
2022-12-08T03:16:26.270Z,46.93
2022-12-08T03:21:29.696Z,47.03
2022-12-08T03:26:33.069Z,47.17
2022-12-08T03:31:36.564Z,47.35
2022-12-08T03:36:39.966Z,47.08
2022-12-08T03:41:43.348Z,47.25
2022-12-08T03:46:46.806Z,47.25
2022-12-08T03:51:50.237Z,47.20
2022-12-08T03:56:53.633Z,47.28
2022-12-08T04:01:57.014Z,47.20
2022-12-08T04:07:00.404Z,47.12
2022-12-08T04:12:03.804Z,47.12
2022-12-08T04:17:07.198Z,47.29
2022-12-08T04:22:10.704Z,47.37
2022-12-08T04:27:14.108Z,47.34
2022-12-08T04:32:17.451Z,47.41
2022-12-08T04:37:20.853Z,47.45
2022-12-08T04:42:24.216Z,47.21
2022-12-08T04:47:27.568Z,47.33
2022-12-08T04:52:30.963Z,47.30
2022-12-08T04:57:34.310Z,47.10
2022-12-08T05:02:37.851Z,47.35
2022-12-08T05:07:41.328Z,47.17
2022-12-08T05:12:44.801Z,46.96
2022-12-08T05:17:48.212Z,47.05
2022-12-08T05:22:51.590Z,47.25
2022-12-08T05:28:06.159Z,47.28
2022-12-08T05:33:14.951Z,47.42
2022-12-08T05:38:18.358Z,47.61
2022-12-08T05:43:21.757Z,47.15
2022-12-08T05:48:25.152Z,47.54
2022-12-08T05:53:28.551Z,47.20
2022-12-08T05:58:31.982Z,47.39
2022-12-08T06:03:35.523Z,47.54
2022-12-08T06:08:38.997Z,47.94
2022-12-08T06:13:42.409Z,48.19
2022-12-08T06:18:45.775Z,48.23
2022-12-08T06:23:49.211Z,48.13
2022-12-08T06:28:52.681Z,48.30
2022-12-08T06:33:56.063Z,47.99
2022-12-08T06:38:59.929Z,47.99
2022-12-08T06:44:03.339Z,47.91
2022-12-08T06:49:06.717Z,47.71
2022-12-08T06:54:10.132Z,48.25
2022-12-08T06:59:13.518Z,48.63
2022-12-08T07:04:16.907Z,49.45
2022-12-08T07:09:20.368Z,49.09
2022-12-08T07:14:24.909Z,48.67
2022-12-08T07:19:28.348Z,48.57
2022-12-08T07:24:31.716Z,48.26
2022-12-08T07:29:35.116Z,48.16
2022-12-08T07:34:38.524Z,48.77
2022-12-08T07:39:41.893Z,49.24
2022-12-08T07:44:45.472Z,49.39
2022-12-08T07:49:48.840Z,48.92
2022-12-08T07:54:52.230Z,48.54
2022-12-08T07:59:55.592Z,48.58
2022-12-08T08:04:59.063Z,48.77
2022-12-08T08:10:02.969Z,47.85
2022-12-08T08:15:07.381Z,47.66
2022-12-08T08:20:10.834Z,47.70
2022-12-08T08:25:14.204Z,47.67
2022-12-08T08:30:20.740Z,47.76
2022-12-08T08:35:24.523Z,48.33
2022-12-08T08:40:27.911Z,48.99
2022-12-08T08:45:31.267Z,50.78
2022-12-08T08:50:37.737Z,50.79
2022-12-08T08:55:41.407Z,49.79
2022-12-08T09:00:44.848Z,49.74
2022-12-08T09:05:48.307Z,49.80
2022-12-08T09:10:51.740Z,49.72
2022-12-08T09:15:55.166Z,49.08
2022-12-08T09:20:58.620Z,49.41
2022-12-08T09:26:02.116Z,49.41
2022-12-08T09:31:05.617Z,49.12
2022-12-08T09:36:09.091Z,49.15
2022-12-08T09:41:12.459Z,48.88
2022-12-08T09:46:15.907Z,48.71
2022-12-08T09:51:19.344Z,48.88
2022-12-08T09:56:23.002Z,48.89
2022-12-08T10:01:26.453Z,48.83
2022-12-08T10:06:29.902Z,48.79
2022-12-08T10:11:33.266Z,48.81
2022-12-08T10:16:36.778Z,48.70
2022-12-08T10:21:40.596Z,48.55
2022-12-08T10:26:44.001Z,48.52
2022-12-08T10:31:47.488Z,48.33
2022-12-08T10:36:50.992Z,48.53
2022-12-08T10:41:54.382Z,48.36
2022-12-08T10:46:57.884Z,48.34
2022-12-08T10:52:01.303Z,48.29
2022-12-08T10:57:04.730Z,48.32
2022-12-08T11:02:08.201Z,48.32
2022-12-08T11:07:11.986Z,48.20
2022-12-08T11:12:15.562Z,48.21
2022-12-08T11:17:19.010Z,48.26
2022-12-08T11:22:22.429Z,48.31
2022-12-08T11:27:25.860Z,48.11
2022-12-08T11:32:29.320Z,48.16
2022-12-08T11:37:34.977Z,47.95
2022-12-08T11:42:38.744Z,47.59
2022-12-08T11:47:42.133Z,47.39
2022-12-08T11:52:45.599Z,47.69
2022-12-08T11:57:49.144Z,47.85
2022-12-08T12:02:52.577Z,48.10
2022-12-08T12:07:56.177Z,50.10
2022-12-08T12:12:59.634Z,54.01
2022-12-08T12:18:03.003Z,53.40
2022-12-08T12:23:06.915Z,51.99
2022-12-08T12:28:10.306Z,51.33
2022-12-08T12:33:15.532Z,50.70
2022-12-08T12:38:32.835Z,50.13
2022-12-08T12:43:36.318Z,49.26
2022-12-08T12:48:39.728Z,49.13
2022-12-08T12:53:43.135Z,48.69
2022-12-08T12:58:46.552Z,48.58
2022-12-08T13:03:50.002Z,48.41
2022-12-08T13:08:53.385Z,49.33
2022-12-08T13:13:56.855Z,49.58
2022-12-08T13:19:02.275Z,49.60
2022-12-08T13:24:05.669Z,49.00
2022-12-08T13:29:11.236Z,48.87
2022-12-08T13:34:14.595Z,49.19
2022-12-08T13:39:18.098Z,48.79
2022-12-08T13:45:17.944Z,47.45
2022-12-08T13:59:59.148Z,49.31
2022-12-08T14:05:18.151Z,47.45
2022-12-08T14:10:23.831Z,45.19
2022-12-08T14:15:29.271Z,45.72
2022-12-08T14:20:57.998Z,46.47
2022-12-08T14:25:59.487Z,46.92
2022-12-08T14:31:02.979Z,47.51
2022-12-08T14:36:06.408Z,47.86
2022-12-08T14:41:09.791Z,47.94
2022-12-08T14:46:13.224Z,48.06
2022-12-08T14:51:16.664Z,47.94
2022-12-08T14:56:20.457Z,47.88
2022-12-08T15:01:24.242Z,47.80
2022-12-08T15:06:27.715Z,47.93
2022-12-08T15:11:31.094Z,48.02
2022-12-08T15:16:34.531Z,48.08
2022-12-08T15:21:38.070Z,48.18
2022-12-08T15:26:41.462Z,48.04
2022-12-08T15:31:44.915Z,48.15
2022-12-08T15:36:48.481Z,48.05
2022-12-08T15:41:51.851Z,48.00
2022-12-08T15:46:56.366Z,48.02
2022-12-08T15:52:10.598Z,48.03
2022-12-08T15:58:04.605Z,47.97
2022-12-08T16:03:05.131Z,47.80
2022-12-08T16:08:17.075Z,47.78
2022-12-08T16:13:57.553Z,47.87
2022-12-08T16:19:01.918Z,47.61
2022-12-08T16:24:09.196Z,48.14
2022-12-08T16:29:13.036Z,48.86
2022-12-08T16:34:16.497Z,48.57
2022-12-08T16:39:20.072Z,48.29
2022-12-08T16:44:23.679Z,48.03
2022-12-08T16:49:27.055Z,47.76
2022-12-08T16:54:30.429Z,47.74
2022-12-08T16:59:33.806Z,47.64
2022-12-08T17:04:51.108Z,47.57
2022-12-08T17:09:54.512Z,47.31
2022-12-08T17:14:57.949Z,47.22
2022-12-08T17:20:20.632Z,47.23
2022-12-08T17:31:04.303Z,46.97
2022-12-08T17:36:07.670Z,46.97
2022-12-08T17:41:11.074Z,47.32
2022-12-08T17:46:14.551Z,47.31
2022-12-08T17:51:21.092Z,47.13
2022-12-08T17:56:24.497Z,46.98
2022-12-08T18:01:28.707Z,46.91
2022-12-08T18:06:32.294Z,46.85
2022-12-08T18:11:35.714Z,46.78
2022-12-08T18:16:39.157Z,46.63
2022-12-08T18:21:50.146Z,46.58
2022-12-08T18:26:55.315Z,46.62
2022-12-08T18:31:58.707Z,46.45
2022-12-08T18:37:02.091Z,46.44
2022-12-08T18:42:22.738Z,46.37
2022-12-08T18:47:26.971Z,46.43
2022-12-08T18:52:32.662Z,46.45
2022-12-08T18:57:36.144Z,46.68
2022-12-08T19:02:39.599Z,47.18
2022-12-08T19:07:43.757Z,46.83
2022-12-08T19:12:48.302Z,47.46
2022-12-08T19:17:51.721Z,47.71
2022-12-08T19:22:55.327Z,47.40
2022-12-08T19:27:58.744Z,47.44
2022-12-08T19:33:02.244Z,47.17
2022-12-08T19:38:05.688Z,47.55
2022-12-08T19:43:26.987Z,48.03
2022-12-08T19:48:30.596Z,47.41
2022-12-08T19:53:34.052Z,47.25
2022-12-08T19:58:37.451Z,47.40
2022-12-08T20:03:40.989Z,47.54
2022-12-08T20:08:50.183Z,47.55
2022-12-08T20:13:53.994Z,47.65
2022-12-08T20:18:57.609Z,47.80
2022-12-08T20:24:01.013Z,47.66
2022-12-08T20:29:05.473Z,47.65
2022-12-08T20:34:08.828Z,47.60
2022-12-08T20:39:12.254Z,48.60
2022-12-08T20:44:15.703Z,48.93
2022-12-08T20:49:19.234Z,48.60
2022-12-08T20:54:22.848Z,48.04
2022-12-08T20:59:27.008Z,47.66
2022-12-08T21:04:30.704Z,47.72
2022-12-08T21:09:34.437Z,47.56
2022-12-08T21:14:37.953Z,47.87
2022-12-08T21:19:42.480Z,47.83
2022-12-08T21:24:46.090Z,47.65
2022-12-08T21:29:49.696Z,47.47
2022-12-08T21:34:53.275Z,47.40
2022-12-08T21:39:57.234Z,47.28
2022-12-08T21:45:01.268Z,47.23
2022-12-08T21:50:05.551Z,47.18
2022-12-08T21:55:09.767Z,47.20
2022-12-08T22:00:13.503Z,47.04
2022-12-08T22:05:17.109Z,46.95
2022-12-08T22:10:21.148Z,47.18
2022-12-08T22:15:24.700Z,47.28
2022-12-08T22:20:28.219Z,47.61
2022-12-08T22:25:31.878Z,48.57
2022-12-08T22:30:39.035Z,48.39
2022-12-08T22:35:43.058Z,48.23
2022-12-08T22:40:46.550Z,48.06
2022-12-08T22:45:50.543Z,47.53
2022-12-08T22:50:54.054Z,47.79
2022-12-08T22:55:57.495Z,47.76
2022-12-08T23:01:00.986Z,47.55
2022-12-08T23:06:04.737Z,47.53
2022-12-08T23:11:08.202Z,47.48
2022-12-08T23:16:11.791Z,47.29
2022-12-08T23:21:15.340Z,47.02
2022-12-08T23:26:19.024Z,46.86
2022-12-08T23:31:22.549Z,46.85
2022-12-08T23:36:26.980Z,46.96
2022-12-08T23:41:30.351Z,46.83
2022-12-08T23:46:33.827Z,46.96
2022-12-08T23:51:37.502Z,46.81
2022-12-08T23:56:40.925Z,46.86
